sensor_id;sensor_type;location;lat;lon;timestamp;temperature;humidity
13794;DHT22;31160;49.500;7.772;2022-09-30T08:11:47;8.20;99.90
13794;DHT22;31160;49.500;7.772;2022-09-30T08:14:19;8.00;99.90
13794;DHT22;31160;49.500;7.772;2022-09-30T08:16:46;8.10;99.90
13794;DHT22;31160;49.500;7.772;2022-09-30T08:19:19;8.00;99.90
13794;DHT22;31160;49.500;7.772;2022-09-30T08:21:46;8.30;99.90
13794;DHT22;31160;49.500;7.772;2022-09-30T08:24:14;8.40;99.90
13794;DHT22;31160;49.500;7.772;2022-09-30T08:26:41;8.30;99.90
13794;DHT22;31160;49.500;7.772;2022-09-30T08:29:08;8.40;99.90
13794;DHT22;31160;49.500;7.772;2022-09-30T08:31:55;8.50;99.90
13794;DHT22;31160;49.500;7.772;2022-09-30T08:34:22;8.80;99.90
13794;DHT22;31160;49.500;7.772;2022-09-30T08:36:49;9.10;99.90
13794;DHT22;31160;49.500;7.772;2022-09-30T08:39:16;9.30;99.90
13794;DHT22;31160;49.500;7.772;2022-09-30T08:41:55;9.30;99.90
13794;DHT22;31160;49.500;7.772;2022-09-30T08:44:42;9.40;99.90
13794;DHT22;31160;49.500;7.772;2022-09-30T08:47:37;9.60;99.90
13794;DHT22;31160;49.500;7.772;2022-09-30T08:50:33;9.70;99.90
13794;DHT22;31160;49.500;7.772;2022-09-30T08:53:10;9.90;99.90
13794;DHT22;31160;49.500;7.772;2022-09-30T08:55:44;10.00;99.90
13794;DHT22;31160;49.500;7.772;2022-09-30T08:58:30;10.10;99.90
13794;DHT22;31160;49.500;7.772;2022-09-30T09:01:03;10.10;99.90
13794;DHT22;31160;49.500;7.772;2022-09-30T09:03:32;10.10;99.90
13794;DHT22;31160;49.500;7.772;2022-09-30T09:06:22;10.10;99.90
13794;DHT22;31160;49.500;7.772;2022-09-30T09:12:22;9.90;99.90
13794;DHT22;31160;49.500;7.772;2022-09-30T09:20:58;9.50;99.90
13794;DHT22;31160;49.500;7.772;2022-09-30T09:23:26;9.50;99.90
13794;DHT22;31160;49.500;7.772;2022-09-30T09:25:56;9.70;99.90
13794;DHT22;31160;49.500;7.772;2022-09-30T09:31:03;9.80;99.90
13794;DHT22;31160;49.500;7.772;2022-09-30T09:33:33;9.90;99.90
13794;DHT22;31160;49.500;7.772;2022-09-30T09:41:51;10.20;99.90
13794;DHT22;31160;49.500;7.772;2022-09-30T09:44:45;10.40;99.90
13794;DHT22;31160;49.500;7.772;2022-09-30T09:47:18;10.30;99.90
13794;DHT22;31160;49.500;7.772;2022-09-30T09:49:50;10.50;99.90
13794;DHT22;31160;49.500;7.772;2022-09-30T09:55:27;11.10;99.90
13794;DHT22;31160;49.500;7.772;2022-09-30T09:58:10;11.20;99.90
13794;DHT22;31160;49.500;7.772;2022-09-30T10:00:40;11.40;99.90
13794;DHT22;31160;49.500;7.772;2022-09-30T10:03:16;11.50;99.90
13794;DHT22;31160;49.500;7.772;2022-09-30T10:06:08;11.50;99.90
13794;DHT22;31160;49.500;7.772;2022-09-30T10:08:37;11.70;99.90
13794;DHT22;31160;49.500;7.772;2022-09-30T10:11:20;11.80;99.90
13794;DHT22;31160;49.500;7.772;2022-09-30T10:13:47;11.60;99.90
13794;DHT22;31160;49.500;7.772;2022-09-30T10:16:40;11.80;99.90
13794;DHT22;31160;49.500;7.772;2022-09-30T10:19:19;11.90;99.90
13794;DHT22;31160;49.500;7.772;2022-09-30T10:21:48;12.10;99.90
13794;DHT22;31160;49.500;7.772;2022-09-30T10:24:30;12.30;99.90
13794;DHT22;31160;49.500;7.772;2022-09-30T10:26:57;12.30;99.90
13794;DHT22;31160;49.500;7.772;2022-09-30T10:29:34;12.50;99.90
13794;DHT22;31160;49.500;7.772;2022-09-30T10:32:05;12.60;99.90
13794;DHT22;31160;49.500;7.772;2022-09-30T10:34:35;12.90;99.90
13794;DHT22;31160;49.500;7.772;2022-09-30T10:37:10;13.10;99.90
13794;DHT22;31160;49.500;7.772;2022-09-30T10:39:41;13.20;99.90
13794;DHT22;31160;49.500;7.772;2022-09-30T10:42:24;13.00;99.90
13794;DHT22;31160;49.500;7.772;2022-09-30T10:47:47;13.30;99.90
13794;DHT22;31160;49.500;7.772;2022-09-30T10:50:19;13.40;99.90
13794;DHT22;31160;49.500;7.772;2022-09-30T10:52:55;13.40;99.90
13794;DHT22;31160;49.500;7.772;2022-09-30T10:55:34;13.40;99.90
13794;DHT22;31160;49.500;7.772;2022-09-30T10:58:44;13.40;99.90
13794;DHT22;31160;49.500;7.772;2022-09-30T11:01:30;13.70;99.90
13794;DHT22;31160;49.500;7.772;2022-09-30T11:04:34;13.90;99.90
13794;DHT22;31160;49.500;7.772;2022-09-30T11:07:29;14.00;99.90
13794;DHT22;31160;49.500;7.772;2022-09-30T11:10:37;14.10;99.90
13794;DHT22;31160;49.500;7.772;2022-09-30T11:13:16;14.20;99.90
13794;DHT22;31160;49.500;7.772;2022-09-30T11:15:48;14.10;99.90
13794;DHT22;31160;49.500;7.772;2022-09-30T11:18:24;13.90;99.90
13794;DHT22;31160;49.500;7.772;2022-09-30T11:21:00;14.00;99.90
13794;DHT22;31160;49.500;7.772;2022-09-30T11:23:43;14.20;99.90
13794;DHT22;31160;49.500;7.772;2022-09-30T11:26:26;14.30;99.90
13794;DHT22;31160;49.500;7.772;2022-09-30T11:29:35;14.20;99.90
13794;DHT22;31160;49.500;7.772;2022-09-30T11:46:02;14.40;99.90
13794;DHT22;31160;49.500;7.772;2022-09-30T11:57:49;14.90;99.90
13794;DHT22;31160;49.500;7.772;2022-09-30T12:00:18;14.80;99.90
13794;DHT22;31160;49.500;7.772;2022-09-30T12:02:46;14.80;99.90
13794;DHT22;31160;49.500;7.772;2022-09-30T12:05:22;14.90;99.90
13794;DHT22;31160;49.500;7.772;2022-09-30T12:10:49;15.00;99.90
13794;DHT22;31160;49.500;7.772;2022-09-30T12:13:28;15.00;99.90
13794;DHT22;31160;49.500;7.772;2022-09-30T12:15:58;15.00;99.90
13794;DHT22;31160;49.500;7.772;2022-09-30T12:18:36;15.00;99.90
13794;DHT22;31160;49.500;7.772;2022-09-30T12:21:19;15.10;99.90
13794;DHT22;31160;49.500;7.772;2022-09-30T12:23:55;15.10;99.90
13794;DHT22;31160;49.500;7.772;2022-09-30T12:26:25;15.30;99.90
13794;DHT22;31160;49.500;7.772;2022-09-30T12:29:04;15.40;99.90
13794;DHT22;31160;49.500;7.772;2022-09-30T12:32:07;15.50;99.90
13794;DHT22;31160;49.500;7.772;2022-09-30T12:34:58;15.20;99.90
13794;DHT22;31160;49.500;7.772;2022-09-30T12:49:08;15.30;99.90
13794;DHT22;31160;49.500;7.772;2022-09-30T12:51:41;15.60;99.90
13794;DHT22;31160;49.500;7.772;2022-09-30T12:54:19;15.60;99.90
13794;DHT22;31160;49.500;7.772;2022-09-30T12:56:53;15.60;99.90
13794;DHT22;31160;49.500;7.772;2022-09-30T12:59:32;15.60;99.90
13794;DHT22;31160;49.500;7.772;2022-09-30T13:02:01;15.50;99.90
13794;DHT22;31160;49.500;7.772;2022-09-30T13:04:37;15.50;99.90
13794;DHT22;31160;49.500;7.772;2022-09-30T13:07:15;15.50;99.90
13794;DHT22;31160;49.500;7.772;2022-09-30T13:10:00;15.50;99.90
13794;DHT22;31160;49.500;7.772;2022-09-30T13:12:47;15.40;99.90
13794;DHT22;31160;49.500;7.772;2022-09-30T13:23:37;15.60;99.80
13794;DHT22;31160;49.500;7.772;2022-09-30T13:31:28;15.60;99.90
13794;DHT22;31160;49.500;7.772;2022-09-30T13:36:37;15.90;99.10
13794;DHT22;31160;49.500;7.772;2022-09-30T13:42:10;15.70;98.20
13794;DHT22;31160;49.500;7.772;2022-09-30T13:45:14;15.70;98.30
13794;DHT22;31160;49.500;7.772;2022-09-30T13:47:49;15.80;98.70
13794;DHT22;31160;49.500;7.772;2022-09-30T13:50:30;15.70;97.60
13794;DHT22;31160;49.500;7.772;2022-09-30T13:53:01;15.70;97.30
13794;DHT22;31160;49.500;7.772;2022-09-30T13:55:37;15.70;98.00
13794;DHT22;31160;49.500;7.772;2022-09-30T14:01:02;15.50;96.80
13794;DHT22;31160;49.500;7.772;2022-09-30T14:06:45;15.70;96.60
13794;DHT22;31160;49.500;7.772;2022-09-30T14:12:38;15.50;96.40
13794;DHT22;31160;49.500;7.772;2022-09-30T14:20:45;15.60;95.90
13794;DHT22;31160;49.500;7.772;2022-09-30T14:23:15;15.70;95.10
13794;DHT22;31160;49.500;7.772;2022-09-30T14:31:24;15.50;93.50
13794;DHT22;31160;49.500;7.772;2022-09-30T14:33:51;15.40;93.40
13794;DHT22;31160;49.500;7.772;2022-09-30T14:36:20;15.50;93.90
13794;DHT22;31160;49.500;7.772;2022-09-30T14:38:53;15.50;93.70
13794;DHT22;31160;49.500;7.772;2022-09-30T14:41:22;15.50;94.20
13794;DHT22;31160;49.500;7.772;2022-09-30T14:43:53;15.60;94.00
13794;DHT22;31160;49.500;7.772;2022-09-30T14:46:37;15.50;94.40
13794;DHT22;31160;49.500;7.772;2022-09-30T14:49:10;15.50;94.30
13794;DHT22;31160;49.500;7.772;2022-09-30T14:51:44;15.50;93.80
13794;DHT22;31160;49.500;7.772;2022-09-30T14:54:17;15.50;93.60
13794;DHT22;31160;49.500;7.772;2022-09-30T14:56:44;15.60;93.80
13794;DHT22;31160;49.500;7.772;2022-09-30T15:01:58;15.40;95.40
13794;DHT22;31160;49.500;7.772;2022-09-30T15:04:34;15.40;94.80
13794;DHT22;31160;49.500;7.772;2022-09-30T15:07:04;15.20;96.00
13794;DHT22;31160;49.500;7.772;2022-09-30T15:09:40;15.30;95.00
13794;DHT22;31160;49.500;7.772;2022-09-30T15:12:17;15.20;96.10
13794;DHT22;31160;49.500;7.772;2022-09-30T15:14:56;15.10;96.50
13794;DHT22;31160;49.500;7.772;2022-09-30T15:17:28;15.20;96.50
13794;DHT22;31160;49.500;7.772;2022-09-30T15:19:57;15.10;97.30
13794;DHT22;31160;49.500;7.772;2022-09-30T15:22:26;15.10;97.00
13794;DHT22;31160;49.500;7.772;2022-09-30T15:24:56;15.10;97.00
13794;DHT22;31160;49.500;7.772;2022-09-30T15:27:28;15.20;96.50
13794;DHT22;31160;49.500;7.772;2022-09-30T15:29:58;15.10;96.70
13794;DHT22;31160;49.500;7.772;2022-09-30T15:32:27;15.00;97.10
13794;DHT22;31160;49.500;7.772;2022-09-30T15:34:55;14.90;97.90
13794;DHT22;31160;49.500;7.772;2022-09-30T15:37:26;14.90;98.40
13794;DHT22;31160;49.500;7.772;2022-09-30T15:40:00;14.90;97.90
13794;DHT22;31160;49.500;7.772;2022-09-30T15:42:56;15.00;96.90
13794;DHT22;31160;49.500;7.772;2022-09-30T15:45:29;14.90;97.10
13794;DHT22;31160;49.500;7.772;2022-09-30T15:48:05;14.70;97.10
13794;DHT22;31160;49.500;7.772;2022-09-30T15:53:17;14.60;98.90
13794;DHT22;31160;49.500;7.772;2022-09-30T15:55:55;14.60;98.60
13794;DHT22;31160;49.500;7.772;2022-09-30T15:58:38;14.60;98.80
13794;DHT22;31160;49.500;7.772;2022-09-30T16:01:19;14.50;98.90
13794;DHT22;31160;49.500;7.772;2022-09-30T16:03:58;14.50;98.50
13794;DHT22;31160;49.500;7.772;2022-09-30T16:06:35;14.60;99.40
13794;DHT22;31160;49.500;7.772;2022-09-30T16:17:06;14.20;99.90
13794;DHT22;31160;49.500;7.772;2022-09-30T16:19:33;14.10;99.90
13794;DHT22;31160;49.500;7.772;2022-09-30T16:22:00;13.90;99.90
13794;DHT22;31160;49.500;7.772;2022-09-30T16:26:59;13.80;99.90
13794;DHT22;31160;49.500;7.772;2022-09-30T16:29:28;13.80;99.90
13794;DHT22;31160;49.500;7.772;2022-09-30T16:31:55;13.70;99.90
13794;DHT22;31160;49.500;7.772;2022-09-30T16:34:24;13.50;99.90
13794;DHT22;31160;49.500;7.772;2022-09-30T16:36:53;13.50;99.90
13794;DHT22;31160;49.500;7.772;2022-09-30T16:39:20;13.40;99.90
13794;DHT22;31160;49.500;7.772;2022-09-30T16:41:47;13.40;99.90
13794;DHT22;31160;49.500;7.772;2022-09-30T16:44:19;13.30;99.90
13794;DHT22;31160;49.500;7.772;2022-09-30T16:46:48;13.30;99.90
13794;DHT22;31160;49.500;7.772;2022-09-30T16:49:17;13.30;99.90
13794;DHT22;31160;49.500;7.772;2022-09-30T16:51:44;13.30;99.90
13794;DHT22;31160;49.500;7.772;2022-09-30T16:54:12;13.10;99.90
13794;DHT22;31160;49.500;7.772;2022-09-30T16:56:38;13.00;99.90
13794;DHT22;31160;49.500;7.772;2022-09-30T16:59:11;12.90;99.90
13794;DHT22;31160;49.500;7.772;2022-09-30T17:01:39;12.70;99.90
13794;DHT22;31160;49.500;7.772;2022-09-30T17:04:06;12.50;99.90
13794;DHT22;31160;49.500;7.772;2022-09-30T17:06:35;12.40;99.90
13794;DHT22;31160;49.500;7.772;2022-09-30T17:09:03;12.30;99.90
13794;DHT22;31160;49.500;7.772;2022-09-30T17:11:32;12.20;99.90
13794;DHT22;31160;49.500;7.772;2022-09-30T17:14:00;12.10;99.90
13794;DHT22;31160;49.500;7.772;2022-09-30T17:16:27;12.10;99.90
13794;DHT22;31160;49.500;7.772;2022-09-30T17:18:54;12.00;99.90
13794;DHT22;31160;49.500;7.772;2022-09-30T17:21:23;11.90;99.90
13794;DHT22;31160;49.500;7.772;2022-09-30T17:23:51;11.70;99.90
13794;DHT22;31160;49.500;7.772;2022-09-30T17:26:19;11.70;99.90
13794;DHT22;31160;49.500;7.772;2022-09-30T17:28:46;11.70;99.90
13794;DHT22;31160;49.500;7.772;2022-09-30T17:31:13;11.50;99.90
13794;DHT22;31160;49.500;7.772;2022-09-30T17:33:40;11.30;99.90
13794;DHT22;31160;49.500;7.772;2022-09-30T17:36:09;11.20;99.90
13794;DHT22;31160;49.500;7.772;2022-09-30T17:38:37;11.10;99.90
13794;DHT22;31160;49.500;7.772;2022-09-30T17:41:05;11.00;99.90
13794;DHT22;31160;49.500;7.772;2022-09-30T17:43:51;11.00;99.90
13794;DHT22;31160;49.500;7.772;2022-09-30T17:46:18;10.80;99.90
13794;DHT22;31160;49.500;7.772;2022-09-30T17:48:53;10.80;99.90
13794;DHT22;31160;49.500;7.772;2022-09-30T17:51:20;10.60;99.90
13794;DHT22;31160;49.500;7.772;2022-09-30T17:53:47;10.50;99.90
13794;DHT22;31160;49.500;7.772;2022-09-30T17:56:17;10.50;99.90
13794;DHT22;31160;49.500;7.772;2022-09-30T17:58:46;10.40;99.90
13794;DHT22;31160;49.500;7.772;2022-09-30T18:01:16;10.30;99.90
13794;DHT22;31160;49.500;7.772;2022-09-30T18:03:43;10.10;99.90
13794;DHT22;31160;49.500;7.772;2022-09-30T18:06:11;10.10;99.90
13794;DHT22;31160;49.500;7.772;2022-09-30T18:08:40;10.00;99.90
13794;DHT22;31160;49.500;7.772;2022-09-30T18:11:06;9.90;99.90
13794;DHT22;31160;49.500;7.772;2022-09-30T18:13:33;9.90;99.90
13794;DHT22;31160;49.500;7.772;2022-09-30T18:16:04;9.90;99.90
13794;DHT22;31160;49.500;7.772;2022-09-30T18:18:33;9.90;99.90
13794;DHT22;31160;49.500;7.772;2022-09-30T18:21:00;9.90;99.90
13794;DHT22;31160;49.500;7.772;2022-09-30T18:23:27;9.80;99.90
13794;DHT22;31160;49.500;7.772;2022-09-30T18:25:54;9.80;99.90
13794;DHT22;31160;49.500;7.772;2022-09-30T18:28:21;9.70;99.90
13794;DHT22;31160;49.500;7.772;2022-09-30T18:30:48;9.70;99.90
13794;DHT22;31160;49.500;7.772;2022-09-30T18:33:15;9.70;99.90
13794;DHT22;31160;49.500;7.772;2022-09-30T18:35:44;9.60;99.90
13794;DHT22;31160;49.500;7.772;2022-09-30T18:38:12;9.50;99.90
13794;DHT22;31160;49.500;7.772;2022-09-30T18:40:41;9.50;99.90
13794;DHT22;31160;49.500;7.772;2022-09-30T18:43:11;9.50;99.90
13794;DHT22;31160;49.500;7.772;2022-09-30T18:45:39;9.40;99.90
13794;DHT22;31160;49.500;7.772;2022-09-30T18:48:06;9.20;99.90
13794;DHT22;31160;49.500;7.772;2022-09-30T18:50:33;9.20;99.90
13794;DHT22;31160;49.500;7.772;2022-09-30T18:53:00;9.00;99.90
13794;DHT22;31160;49.500;7.772;2022-09-30T18:55:36;9.00;99.90
13794;DHT22;31160;49.500;7.772;2022-09-30T18:58:03;8.90;99.90
13794;DHT22;31160;49.500;7.772;2022-09-30T19:00:30;8.90;99.90
13794;DHT22;31160;49.500;7.772;2022-09-30T19:02:57;8.90;99.90
13794;DHT22;31160;49.500;7.772;2022-09-30T19:05:24;8.90;99.90
13794;DHT22;31160;49.500;7.772;2022-09-30T19:07:52;8.80;99.90
13794;DHT22;31160;49.500;7.772;2022-09-30T19:10:19;8.80;99.90
13794;DHT22;31160;49.500;7.772;2022-09-30T19:12:46;8.70;99.90
13794;DHT22;31160;49.500;7.772;2022-09-30T19:15:13;8.60;99.90
13794;DHT22;31160;49.500;7.772;2022-09-30T19:17:42;8.50;99.90
13794;DHT22;31160;49.500;7.772;2022-09-30T19:20:09;8.50;99.90
13794;DHT22;31160;49.500;7.772;2022-09-30T19:22:36;8.40;99.90
13794;DHT22;31160;49.500;7.772;2022-09-30T19:25:04;8.40;99.90
13794;DHT22;31160;49.500;7.772;2022-09-30T19:27:31;8.50;99.90
13794;DHT22;31160;49.500;7.772;2022-09-30T19:30:03;8.40;99.90
13794;DHT22;31160;49.500;7.772;2022-09-30T19:32:31;8.30;99.90
13794;DHT22;31160;49.500;7.772;2022-09-30T19:35:06;8.30;99.90
13794;DHT22;31160;49.500;7.772;2022-09-30T19:37:35;8.20;99.90
13794;DHT22;31160;49.500;7.772;2022-09-30T19:40:03;8.30;99.90
13794;DHT22;31160;49.500;7.772;2022-09-30T19:42:46;8.30;99.90
13794;DHT22;31160;49.500;7.772;2022-09-30T19:45:14;8.20;99.90
13794;DHT22;31160;49.500;7.772;2022-09-30T19:47:42;8.10;99.90
13794;DHT22;31160;49.500;7.772;2022-09-30T19:50:09;8.00;99.90
13794;DHT22;31160;49.500;7.772;2022-09-30T19:52:35;7.90;99.90
13794;DHT22;31160;49.500;7.772;2022-09-30T19:55:13;7.80;99.90
13794;DHT22;31160;49.500;7.772;2022-09-30T19:57:42;7.90;99.90
13794;DHT22;31160;49.500;7.772;2022-09-30T20:00:10;7.90;99.90
13794;DHT22;31160;49.500;7.772;2022-09-30T20:02:38;7.90;99.90
13794;DHT22;31160;49.500;7.772;2022-09-30T20:05:05;7.90;99.90
13794;DHT22;31160;49.500;7.772;2022-09-30T20:07:32;7.80;99.90
13794;DHT22;31160;49.500;7.772;2022-09-30T20:10:00;7.70;99.90
13794;DHT22;31160;49.500;7.772;2022-09-30T20:12:27;7.80;99.90
13794;DHT22;31160;49.500;7.772;2022-09-30T20:14:54;7.70;99.90
13794;DHT22;31160;49.500;7.772;2022-09-30T20:17:39;7.80;99.90
13794;DHT22;31160;49.500;7.772;2022-09-30T20:20:06;7.80;99.90
13794;DHT22;31160;49.500;7.772;2022-09-30T20:22:52;7.70;99.90
13794;DHT22;31160;49.500;7.772;2022-09-30T20:25:18;7.80;99.90
13794;DHT22;31160;49.500;7.772;2022-09-30T20:27:45;7.80;99.90
13794;DHT22;31160;49.500;7.772;2022-09-30T20:30:18;7.80;99.90
13794;DHT22;31160;49.500;7.772;2022-09-30T20:32:45;7.80;99.90
13794;DHT22;31160;49.500;7.772;2022-09-30T20:35:11;7.80;99.90
13794;DHT22;31160;49.500;7.772;2022-09-30T20:37:38;7.80;99.90
13794;DHT22;31160;49.500;7.772;2022-09-30T20:40:06;7.70;99.90
13794;DHT22;31160;49.500;7.772;2022-09-30T20:42:34;7.70;99.90
13794;DHT22;31160;49.500;7.772;2022-09-30T20:45:04;7.50;99.90
13794;DHT22;31160;49.500;7.772;2022-09-30T20:47:31;7.40;99.90
13794;DHT22;31160;49.500;7.772;2022-09-30T20:49:58;7.30;99.90
13794;DHT22;31160;49.500;7.772;2022-09-30T20:52:25;7.20;99.90
13794;DHT22;31160;49.500;7.772;2022-09-30T20:54:52;7.20;99.90
13794;DHT22;31160;49.500;7.772;2022-09-30T20:57:18;7.10;99.90
13794;DHT22;31160;49.500;7.772;2022-09-30T20:59:45;7.20;99.90
13794;DHT22;31160;49.500;7.772;2022-09-30T21:02:12;7.10;99.90
13794;DHT22;31160;49.500;7.772;2022-09-30T21:04:39;7.20;99.90
13794;DHT22;31160;49.500;7.772;2022-09-30T21:07:07;7.20;99.90
13794;DHT22;31160;49.500;7.772;2022-09-30T21:09:34;7.20;99.90
13794;DHT22;31160;49.500;7.772;2022-09-30T21:12:00;7.20;99.90
13794;DHT22;31160;49.500;7.772;2022-09-30T21:14:27;7.20;99.90
13794;DHT22;31160;49.500;7.772;2022-09-30T21:16:54;7.20;99.90
13794;DHT22;31160;49.500;7.772;2022-09-30T21:19:21;7.20;99.90
13794;DHT22;31160;49.500;7.772;2022-09-30T21:21:47;7.20;99.90
13794;DHT22;31160;49.500;7.772;2022-09-30T21:24:14;7.20;99.90
13794;DHT22;31160;49.500;7.772;2022-09-30T21:26:41;7.20;99.90
13794;DHT22;31160;49.500;7.772;2022-09-30T21:29:08;7.10;99.90
13794;DHT22;31160;49.500;7.772;2022-09-30T21:31:35;7.10;99.90
13794;DHT22;31160;49.500;7.772;2022-09-30T21:34:03;7.10;99.90
13794;DHT22;31160;49.500;7.772;2022-09-30T21:36:30;7.10;99.90
13794;DHT22;31160;49.500;7.772;2022-09-30T21:39:01;7.10;99.90
13794;DHT22;31160;49.500;7.772;2022-09-30T21:41:28;7.00;99.90
13794;DHT22;31160;49.500;7.772;2022-09-30T21:43:55;6.90;99.90
13794;DHT22;31160;49.500;7.772;2022-09-30T21:46:21;6.90;99.90
13794;DHT22;31160;49.500;7.772;2022-09-30T21:48:48;6.90;99.90
13794;DHT22;31160;49.500;7.772;2022-09-30T21:51:15;6.80;99.90
13794;DHT22;31160;49.500;7.772;2022-09-30T21:53:42;6.80;99.90
13794;DHT22;31160;49.500;7.772;2022-09-30T21:56:09;6.80;99.90
13794;DHT22;31160;49.500;7.772;2022-09-30T21:58:37;6.70;99.90
13794;DHT22;31160;49.500;7.772;2022-09-30T22:01:05;6.70;99.90
13794;DHT22;31160;49.500;7.772;2022-09-30T22:03:33;6.60;99.90
13794;DHT22;31160;49.500;7.772;2022-09-30T22:06:05;6.50;99.90
13794;DHT22;31160;49.500;7.772;2022-09-30T22:08:34;6.60;99.90
13794;DHT22;31160;49.500;7.772;2022-09-30T22:11:05;6.50;99.90
13794;DHT22;31160;49.500;7.772;2022-09-30T22:13:33;6.60;99.90
13794;DHT22;31160;49.500;7.772;2022-09-30T22:16:04;6.50;99.90
13794;DHT22;31160;49.500;7.772;2022-09-30T22:18:32;6.50;99.90
13794;DHT22;31160;49.500;7.772;2022-09-30T22:21:11;6.50;99.90
13794;DHT22;31160;49.500;7.772;2022-09-30T22:23:38;6.40;99.90
13794;DHT22;31160;49.500;7.772;2022-09-30T22:26:10;6.50;99.90
13794;DHT22;31160;49.500;7.772;2022-09-30T22:28:37;6.60;99.90
13794;DHT22;31160;49.500;7.772;2022-09-30T22:31:18;6.60;99.90
13794;DHT22;31160;49.500;7.772;2022-09-30T22:33:50;6.60;99.90
13794;DHT22;31160;49.500;7.772;2022-09-30T22:36:36;6.70;99.90
13794;DHT22;31160;49.500;7.772;2022-09-30T22:39:22;6.70;99.90
13794;DHT22;31160;49.500;7.772;2022-09-30T22:41:53;6.70;99.90
13794;DHT22;31160;49.500;7.772;2022-09-30T22:44:21;6.60;99.90
13794;DHT22;31160;49.500;7.772;2022-09-30T22:46:54;6.60;99.90
13794;DHT22;31160;49.500;7.772;2022-09-30T22:49:21;6.50;99.90
13794;DHT22;31160;49.500;7.772;2022-09-30T22:51:51;6.60;99.90
13794;DHT22;31160;49.500;7.772;2022-09-30T22:54:18;6.70;99.90
13794;DHT22;31160;49.500;7.772;2022-09-30T22:56:45;6.70;99.90
13794;DHT22;31160;49.500;7.772;2022-09-30T22:59:11;6.70;99.90
13794;DHT22;31160;49.500;7.772;2022-09-30T23:01:38;6.70;99.90
13794;DHT22;31160;49.500;7.772;2022-09-30T23:04:05;6.50;99.90
13794;DHT22;31160;49.500;7.772;2022-09-30T23:06:33;6.60;99.90
13794;DHT22;31160;49.500;7.772;2022-09-30T23:09:05;6.60;99.90
13794;DHT22;31160;49.500;7.772;2022-09-30T23:11:32;6.60;99.90
13794;DHT22;31160;49.500;7.772;2022-09-30T23:14:00;6.50;99.90
13794;DHT22;31160;49.500;7.772;2022-09-30T23:16:28;6.40;99.90
13794;DHT22;31160;49.500;7.772;2022-09-30T23:18:55;6.40;99.90
13794;DHT22;31160;49.500;7.772;2022-09-30T23:21:22;6.40;99.90
13794;DHT22;31160;49.500;7.772;2022-09-30T23:23:49;6.40;99.90
13794;DHT22;31160;49.500;7.772;2022-09-30T23:26:18;6.30;99.90
13794;DHT22;31160;49.500;7.772;2022-09-30T23:28:46;6.30;99.90
13794;DHT22;31160;49.500;7.772;2022-09-30T23:31:15;6.30;99.90
13794;DHT22;31160;49.500;7.772;2022-09-30T23:33:45;6.40;99.90
13794;DHT22;31160;49.500;7.772;2022-09-30T23:36:15;6.40;99.90
13794;DHT22;31160;49.500;7.772;2022-09-30T23:38:42;6.40;99.90
13794;DHT22;31160;49.500;7.772;2022-09-30T23:41:08;6.40;99.90
13794;DHT22;31160;49.500;7.772;2022-09-30T23:43:35;6.40;99.90
13794;DHT22;31160;49.500;7.772;2022-09-30T23:46:04;6.40;99.90
13794;DHT22;31160;49.500;7.772;2022-09-30T23:48:34;6.30;99.90
13794;DHT22;31160;49.500;7.772;2022-09-30T23:51:02;6.30;99.90
13794;DHT22;31160;49.500;7.772;2022-09-30T23:53:31;6.30;99.90
13794;DHT22;31160;49.500;7.772;2022-09-30T23:56:03;6.40;99.90
13794;DHT22;31160;49.500;7.772;2022-09-30T23:58:34;6.40;99.90
